Time;durP1;ratioP1;P1;durP2;ratioP2;P2;SDS_P1;SDS_P2;PMS_P1;PMS_P2;Temp;Humidity;BMP_temperature;BMP_pressure;BME280_temperature;BME280_humidity;BME280_pressure;Samples;Min_cycle;Max_cycle;Signal;HPM_P1;HPM_P2
2022/06/10 00:02:03;;;;;;;3.87;2.83;;;16.90;99.90;;;;;;4955991;28;20200;-76
2022/06/10 00:04:29;;;;;;;4.93;2.80;;;16.90;99.90;;;;;;4973865;28;20172;-75
2022/06/10 00:06:54;;;;;;;5.00;3.30;;;16.90;99.90;;;;;;4973505;28;20579;-75
2022/06/10 00:09:20;;;;;;;4.30;3.67;;;16.90;99.90;;;;;;4973484;28;20625;-75
2022/06/10 00:11:46;;;;;;;7.37;3.03;;;16.90;99.90;;;;;;4955204;28;20229;-75
2022/06/10 00:14:12;;;;;;;4.63;3.17;;;16.90;99.90;;;;;;4955984;28;20541;-75
2022/06/10 00:16:37;;;;;;;4.97;3.93;;;16.90;99.90;;;;;;4956075;28;20686;-75
2022/06/10 00:19:03;;;;;;;2.80;2.60;;;16.90;99.90;;;;;;4956148;28;20183;-75
2022/06/10 00:21:29;;;;;;;4.03;3.23;;;16.90;99.90;;;;;;4972113;28;20627;-76
2022/06/10 00:23:55;;;;;;;4.50;2.87;;;17.00;99.90;;;;;;4973362;28;20175;-76
2022/06/10 00:26:21;;;;;;;3.40;2.20;;;17.00;99.90;;;;;;4973286;28;20646;-75
2022/06/10 00:28:48;;;;;;;4.93;2.97;;;16.90;99.90;;;;;;4973188;28;20206;-76
2022/06/10 00:31:14;;;;;;;5.20;2.63;;;16.90;99.90;;;;;;4972465;28;20583;-76
2022/06/10 00:33:40;;;;;;;2.93;2.40;;;16.90;99.90;;;;;;4973107;28;20559;-75
2022/06/10 00:36:09;;;;;;;4.23;3.20;;;16.90;99.90;;;;;;4972854;28;20598;-76
2022/06/10 00:38:34;;;;;;;5.00;3.27;;;16.80;99.90;;;;;;4939488;28;20575;-76
2022/06/10 00:41:02;;;;;;;3.90;2.70;;;16.80;99.90;;;;;;4971921;28;20563;-76
2022/06/10 00:43:32;;;;;;;3.67;3.30;;;16.70;99.90;;;;;;4939871;28;20974;-76
2022/06/10 00:46:05;;;;;;;3.90;2.93;;;16.60;99.90;;;;;;4955693;28;20632;-75
2022/06/10 00:48:36;;;;;;;4.57;3.10;;;16.60;99.90;;;;;;4972890;28;20633;-75
2022/06/10 00:51:19;;;;;;;4.23;2.83;;;16.50;99.90;;;;;;4971111;28;20564;-74
2022/06/10 00:53:49;;;;;;;3.93;3.43;;;16.50;99.90;;;;;;4967116;28;20654;-75
2022/06/10 00:58:50;;;;;;;4.63;3.70;;;16.40;99.90;;;;;;4959432;28;20635;-75
2022/06/10 01:01:19;;;;;;;3.40;3.10;;;16.40;99.90;;;;;;4961053;28;20588;-75
2022/06/10 01:03:44;;;;;;;4.03;3.37;;;16.30;99.90;;;;;;4972025;28;20579;-75
2022/06/10 01:06:11;;;;;;;3.27;2.77;;;16.30;99.90;;;;;;4972427;28;20579;-74
2022/06/10 01:08:38;;;;;;;4.97;3.00;;;16.20;99.90;;;;;;4969842;28;20734;-74
2022/06/10 01:11:31;;;;;;;3.20;2.90;;;16.20;99.90;;;;;;4948608;28;21007;-74
2022/06/10 01:14:20;;;;;;;2.70;2.50;;;16.10;99.90;;;;;;4971493;28;20575;-75
2022/06/10 01:16:57;;;;;;;5.03;3.27;;;16.10;99.90;;;;;;4969385;28;20619;-75
2022/06/10 01:19:55;;;;;;;3.27;2.33;;;16.10;99.90;;;;;;4961468;28;20606;-74
2022/06/10 01:22:54;;;;;;;7.73;3.67;;;16.10;99.90;;;;;;4925832;29;20631;-75
2022/06/10 01:25:41;;;;;;;3.27;2.97;;;16.00;99.90;;;;;;4957224;28;20990;-75
2022/06/10 01:28:09;;;;;;;3.77;2.83;;;16.00;99.90;;;;;;4943205;28;21257;-75
2022/06/10 01:31:12;;;;;;;3.43;3.13;;;15.90;99.90;;;;;;4963706;28;20591;-75
2022/06/10 01:33:57;;;;;;;4.37;2.97;;;15.90;99.90;;;;;;4972300;28;20955;-75
2022/06/10 01:36:31;;;;;;;6.00;3.17;;;15.90;99.90;;;;;;4972306;28;20586;-75
2022/06/10 01:39:16;;;;;;;3.33;2.60;;;15.90;99.90;;;;;;4971187;28;20594;-74
2022/06/10 01:41:50;;;;;;;3.40;3.07;;;15.90;99.90;;;;;;4957691;28;20598;-74
2022/06/10 01:44:46;;;;;;;3.50;3.10;;;15.80;99.90;;;;;;4973342;28;20579;-75
2022/06/10 01:47:40;;;;;;;7.60;3.70;;;15.80;99.90;;;;;;4954866;28;20625;-74
2022/06/10 01:50:21;;;;;;;3.37;2.63;;;15.80;99.90;;;;;;4972139;28;20670;-74
2022/06/10 01:52:56;;;;;;;3.43;2.60;;;15.80;99.90;;;;;;4971915;28;20582;-74
2022/06/10 01:55:47;;;;;;;3.40;3.10;;;15.80;99.90;;;;;;4955235;28;20579;-75
2022/06/10 01:58:34;;;;;;;3.20;2.90;;;15.80;99.90;;;;;;4972407;28;21018;-75
2022/06/10 02:01:10;;;;;;;3.33;3.03;;;15.70;99.90;;;;;;4972061;28;20931;-75
2022/06/10 02:03:41;;;;;;;3.57;3.23;;;15.70;99.90;;;;;;4954799;28;20595;-74
2022/06/10 02:06:46;;;;;;;9.60;2.93;;;15.70;99.90;;;;;;4972206;28;20571;-75
2022/06/10 02:09:16;;;;;;;4.93;3.73;;;15.70;99.90;;;;;;4971671;28;20661;-74
2022/06/10 02:11:48;;;;;;;4.40;2.97;;;15.70;99.90;;;;;;4973949;28;20907;-74
2022/06/10 02:14:24;;;;;;;7.37;3.87;;;15.70;99.90;;;;;;4977814;28;20630;-75
2022/06/10 02:16:51;;;;;;;4.93;3.13;;;15.70;99.90;;;;;;4974918;28;20625;-74
2022/06/10 02:19:27;;;;;;;4.50;3.42;;;15.60;99.90;;;;;;4961111;28;20650;-76
2022/06/10 02:22:06;;;;;;;7.33;3.37;;;15.60;99.90;;;;;;4975826;28;20198;-75
2022/06/10 02:24:43;;;;;;;5.20;3.10;;;15.60;99.90;;;;;;4975485;28;20566;-75
2022/06/10 02:27:17;;;;;;;4.70;2.70;;;15.60;99.90;;;;;;4975673;28;20610;-74
2022/06/10 02:29:59;;;;;;;3.80;3.13;;;15.60;99.90;;;;;;4974217;28;20579;-74
2022/06/10 02:32:25;;;;;;;4.90;3.53;;;15.50;99.90;;;;;;4974990;28;20574;-74
2022/06/10 02:34:51;;;;;;;3.80;3.00;;;15.50;99.90;;;;;;4975294;28;20563;-74
2022/06/10 02:37:27;;;;;;;5.30;2.60;;;15.50;99.90;;;;;;4958170;28;20933;-75
2022/06/10 02:39:59;;;;;;;4.85;3.60;;;15.50;99.90;;;;;;4975170;28;20566;-74
2022/06/10 02:42:42;;;;;;;4.17;3.10;;;15.50;99.90;;;;;;4974832;28;20176;-75
2022/06/10 02:45:21;;;;;;;3.73;2.73;;;15.40;99.90;;;;;;4975499;28;20571;-74
2022/06/10 02:47:54;;;;;;;4.17;3.10;;;15.40;99.90;;;;;;4975060;28;20642;-74
2022/06/10 02:50:20;;;;;;;4.40;3.05;;;15.40;99.90;;;;;;4974990;28;21180;-74
2022/06/10 02:52:47;;;;;;;6.13;2.90;;;15.40;99.90;;;;;;4974781;28;20164;-75
2022/06/10 02:55:22;;;;;;;3.60;2.90;;;15.30;99.90;;;;;;4975103;28;21153;-74
2022/06/10 03:01:14;;;;;;;3.85;3.45;;;15.30;99.90;;;;;;4974387;28;20194;-75
2022/06/10 03:03:39;;;;;;;6.18;3.47;;;15.20;99.90;;;;;;4950188;28;20192;-74
2022/06/10 03:07:07;;;;;;;8.53;2.97;;;15.20;99.90;;;;;;4974935;28;20178;-74
2022/06/10 03:10:01;;;;;;;4.95;2.85;;;15.20;99.90;;;;;;4895428;29;20358;-75
2022/06/10 03:13:09;;;;;;;2.97;2.70;;;15.20;99.90;;;;;;4914601;29;20186;-74
2022/06/10 03:15:43;;;;;;;3.22;2.50;;;15.20;99.90;;;;;;4895554;28;20698;-74
2022/06/10 03:18:24;;;;;;;4.90;3.57;;;15.20;99.90;;;;;;4974567;28;20179;-74
2022/06/10 03:20:56;;;;;;;3.50;2.93;;;15.20;99.90;;;;;;4956671;28;20674;-74
2022/06/10 03:23:29;;;;;;;5.73;3.37;;;15.20;99.90;;;;;;4973660;28;20923;-74
2022/06/10 03:26:05;;;;;;;3.57;2.87;;;15.10;99.90;;;;;;4974421;28;21137;-75
2022/06/10 03:28:48;;;;;;;4.97;2.97;;;15.10;99.90;;;;;;4974191;28;20630;-74
2022/06/10 03:31:34;;;;;;;4.83;4.17;;;15.10;99.90;;;;;;4973797;28;20670;-74
2022/06/10 03:34:23;;;;;;;4.03;3.63;;;15.10;99.90;;;;;;4977206;28;20567;-75
2022/06/10 03:36:51;;;;;;;3.40;3.10;;;15.10;99.90;;;;;;4974293;28;20595;-74
2022/06/10 03:39:21;;;;;;;3.30;3.00;;;15.10;99.90;;;;;;4974328;28;20571;-74
2022/06/10 03:42:10;;;;;;;3.20;2.90;;;15.10;99.90;;;;;;4973855;28;20571;-74
2022/06/10 03:44:37;;;;;;;13.57;4.05;;;15.00;99.90;;;;;;4973994;28;21017;-74
2022/06/10 03:47:06;;;;;;;3.07;2.67;;;15.00;99.90;;;;;;4974195;28;20196;-74
2022/06/10 03:49:41;;;;;;;3.80;3.40;;;15.00;99.90;;;;;;4973895;28;20635;-75
2022/06/10 03:52:10;;;;;;;6.30;3.40;;;15.00;99.90;;;;;;4956713;28;21177;-74
2022/06/10 03:54:36;;;;;;;6.20;2.83;;;15.00;99.90;;;;;;4972850;28;20587;-74
2022/06/10 03:57:01;;;;;;;3.87;3.57;;;15.00;99.90;;;;;;4973598;28;20603;-74
2022/06/10 03:59:27;;;;;;;6.50;3.60;;;15.00;99.90;;;;;;4972437;28;20182;-73
2022/06/10 04:01:53;;;;;;;3.50;2.90;;;15.00;99.90;;;;;;4973397;28;20175;-73
2022/06/10 04:04:19;;;;;;;6.27;4.13;;;15.00;99.90;;;;;;4972614;28;20183;-72
2022/06/10 04:06:44;;;;;;;2.67;2.43;;;15.00;99.90;;;;;;4973648;28;20196;-73
2022/06/10 04:09:13;;;;;;;3.23;2.90;;;15.00;99.90;;;;;;4973958;28;20301;-74
2022/06/10 04:11:38;;;;;;;4.77;3.13;;;14.90;99.90;;;;;;4976177;28;20178;-74
2022/06/10 04:14:04;;;;;;;3.90;2.70;;;15.00;99.90;;;;;;4973512;28;20571;-73
2022/06/10 04:16:30;;;;;;;4.63;3.40;;;15.00;99.90;;;;;;4973534;28;20214;-74
2022/06/10 04:18:56;;;;;;;3.17;2.70;;;15.00;99.90;;;;;;4973773;28;20571;-74
2022/06/10 04:21:22;;;;;;;7.93;4.00;;;15.00;99.90;;;;;;4973061;28;20571;-74
2022/06/10 04:23:48;;;;;;;6.80;4.10;;;15.00;99.90;;;;;;4940314;28;20230;-75
2022/06/10 04:26:13;;;;;;;3.40;3.00;;;15.10;99.90;;;;;;4973786;28;20571;-75
2022/06/10 04:28:39;;;;;;;4.57;3.10;;;15.10;99.90;;;;;;4956975;28;20199;-73
2022/06/10 04:31:05;;;;;;;6.50;3.77;;;15.10;99.90;;;;;;4972796;28;20553;-73
2022/06/10 04:33:33;;;;;;;4.23;3.03;;;15.10;99.90;;;;;;4973345;28;20565;-74
2022/06/10 04:35:59;;;;;;;4.30;3.93;;;15.10;99.90;;;;;;4973209;28;20569;-73
2022/06/10 04:38:25;;;;;;;4.50;2.60;;;15.20;99.90;;;;;;4940083;28;20986;-73
2022/06/10 04:40:52;;;;;;;3.57;3.07;;;15.20;99.90;;;;;;4972649;28;20591;-73
2022/06/10 04:43:18;;;;;;;4.63;2.73;;;15.30;99.90;;;;;;4967801;28;20596;-73
2022/06/10 04:45:50;;;;;;;3.20;2.83;;;15.40;99.90;;;;;;4965482;28;20595;-72
2022/06/10 04:48:16;;;;;;;4.43;2.80;;;15.40;99.90;;;;;;4945969;28;21021;-72
2022/06/10 04:50:43;;;;;;;3.10;2.80;;;15.50;99.90;;;;;;4946405;28;20591;-73
2022/06/10 04:53:10;;;;;;;4.57;2.90;;;15.60;99.90;;;;;;4961208;28;20571;-72
2022/06/10 04:55:36;;;;;;;3.57;2.80;;;15.60;99.90;;;;;;4960117;28;20591;-73
2022/06/10 04:58:02;;;;;;;5.83;2.97;;;15.80;99.90;;;;;;4961176;28;20626;-73
2022/06/10 05:00:34;;;;;;;3.70;3.27;;;15.90;99.90;;;;;;4925955;28;20587;-72
2022/06/10 05:03:01;;;;;;;4.30;2.50;;;16.00;99.90;;;;;;4972958;28;20607;-73
2022/06/10 05:05:28;;;;;;;5.20;2.27;;;16.20;99.90;;;;;;4955709;28;20579;-73
2022/06/10 05:07:54;;;;;;;6.03;2.80;;;16.30;99.90;;;;;;4972767;28;20636;-73
2022/06/10 05:10:20;;;;;;;3.90;2.30;;;16.50;99.90;;;;;;4971009;28;20572;-73
2022/06/10 05:12:46;;;;;;;3.30;2.27;;;16.60;99.90;;;;;;4969451;28;20573;-73
2022/06/10 05:15:14;;;;;;;3.20;2.57;;;16.80;99.90;;;;;;4953496;28;20571;-73
2022/06/10 05:17:40;;;;;;;3.60;1.90;;;16.90;99.90;;;;;;4946455;28;20196;-73
2022/06/10 05:20:06;;;;;;;3.07;1.97;;;16.90;99.90;;;;;;4962514;28;21186;-73
2022/06/10 05:22:32;;;;;;;6.17;2.97;;;17.00;99.90;;;;;;4958816;28;20585;-73
2022/06/10 05:24:58;;;;;;;3.60;2.40;;;17.00;99.90;;;;;;4951998;28;20584;-72
2022/06/10 05:27:24;;;;;;;4.93;2.37;;;17.10;99.90;;;;;;4967306;28;20220;-75
2022/06/10 05:29:50;;;;;;;4.07;2.30;;;17.10;99.90;;;;;;4952616;28;20176;-74
2022/06/10 05:32:16;;;;;;;3.00;1.93;;;17.30;99.90;;;;;;4933361;29;20176;-74
2022/06/10 05:34:44;;;;;;;3.93;1.80;;;17.40;99.90;;;;;;4932898;29;20569;-74
2022/06/10 05:37:19;;;;;;;5.03;2.57;;;17.50;99.90;;;;;;4934047;29;20593;-74
2022/06/10 05:39:46;;;;;;;3.13;2.23;;;17.70;99.90;;;;;;4933897;29;20569;-74
2022/06/10 05:42:13;;;;;;;4.43;1.93;;;18.00;99.90;;;;;;4932734;29;20597;-74
2022/06/10 05:44:42;;;;;;;3.57;2.23;;;18.20;99.90;;;;;;4933909;29;20580;-74
2022/06/10 05:47:24;;;;;;;3.50;1.87;;;18.40;99.90;;;;;;4935273;29;20604;-74
2022/06/10 05:49:53;;;;;;;5.87;2.00;;;18.70;99.90;;;;;;4936552;29;20581;-75
2022/06/10 05:52:22;;;;;;;4.33;2.07;;;19.00;99.90;;;;;;4937696;29;20926;-75
2022/06/10 05:54:50;;;;;;;4.43;2.30;;;19.20;99.90;;;;;;4936156;29;20573;-74
2022/06/10 05:57:17;;;;;;;4.33;1.90;;;19.30;99.90;;;;;;4937759;29;20632;-75
2022/06/10 05:59:44;;;;;;;4.90;2.20;;;19.40;99.90;;;;;;4936742;29;20573;-75
2022/06/10 06:02:13;;;;;;;3.50;1.80;;;19.40;99.90;;;;;;4941329;29;20988;-75
2022/06/10 06:04:39;;;;;;;4.40;2.20;;;19.40;99.90;;;;;;4956941;28;20595;-75
2022/06/10 06:07:06;;;;;;;4.07;1.70;;;19.50;99.90;;;;;;4976056;28;20603;-74
2022/06/10 06:09:32;;;;;;;5.97;1.83;;;19.50;99.90;;;;;;4975732;28;20618;-75
2022/06/10 06:11:58;;;;;;;4.73;2.17;;;19.60;99.90;;;;;;4975717;28;20571;-75
2022/06/10 06:14:27;;;;;;;4.80;2.20;;;19.60;99.90;;;;;;4940791;28;20597;-74
2022/06/10 06:17:01;;;;;;;3.17;1.70;;;19.60;99.90;;;;;;4958146;28;20627;-74
2022/06/10 06:19:29;;;;;;;5.53;1.30;;;19.60;99.90;;;;;;4975090;28;20595;-75
2022/06/10 06:21:55;;;;;;;5.80;1.77;;;19.60;99.90;;;;;;4972930;28;21023;-74
2022/06/10 06:24:21;;;;;;;3.63;1.40;;;19.50;99.90;;;;;;4974899;28;20670;-75
2022/06/10 06:26:47;;;;;;;3.90;2.20;;;19.50;99.90;;;;;;4958159;28;20622;-75
2022/06/10 06:29:13;;;;;;;4.10;1.53;;;19.50;99.90;;;;;;4975670;28;20204;-74
2022/06/10 06:31:39;;;;;;;2.77;1.30;;;19.50;99.90;;;;;;4973540;28;20571;-74
2022/06/10 06:34:05;;;;;;;3.30;1.50;;;19.50;99.90;;;;;;4975586;28;20632;-75
2022/06/10 06:36:38;;;;;;;4.73;1.50;;;19.60;99.90;;;;;;4958018;28;20993;-74
2022/06/10 06:39:05;;;;;;;4.33;1.40;;;19.60;99.90;;;;;;4978840;28;21118;-75
2022/06/10 06:41:32;;;;;;;4.00;1.53;;;19.70;99.90;;;;;;4975016;28;21156;-75
2022/06/10 06:43:57;;;;;;;4.05;1.60;;;19.70;99.90;;;;;;4975378;28;20598;-74
2022/06/10 06:46:26;;;;;;;3.40;1.10;;;19.90;99.90;;;;;;4958379;28;20175;-75
2022/06/10 06:48:54;;;;;;;5.40;1.40;;;20.00;99.90;;;;;;4947518;28;20643;-75
2022/06/10 06:51:20;;;;;;;5.00;1.70;;;20.00;99.90;;;;;;4954893;28;20583;-75
2022/06/10 06:53:45;;;;;;;3.40;1.40;;;20.10;99.90;;;;;;4939085;29;20564;-75
2022/06/10 06:56:11;;;;;;;2.90;1.33;;;20.10;99.90;;;;;;4956091;28;20192;-74
2022/06/10 06:58:37;;;;;;;3.87;1.47;;;20.30;99.90;;;;;;4963986;28;20207;-75
2022/06/10 07:01:04;;;;;;;5.77;1.63;;;20.40;99.90;;;;;;4937740;29;20243;-75
2022/06/10 07:03:29;;;;;;;6.60;1.47;;;20.50;99.90;;;;;;4964368;28;20615;-75
2022/06/10 07:05:55;;;;;;;3.73;1.83;;;20.60;99.90;;;;;;4957776;28;20599;-76
2022/06/10 07:08:30;;;;;;;3.70;1.50;;;20.70;99.90;;;;;;4949915;28;20709;-76
2022/06/10 07:11:00;;;;;;;3.93;1.30;;;20.80;99.90;;;;;;4961777;28;20678;-76
2022/06/10 07:13:27;;;;;;;4.97;1.53;;;20.90;99.90;;;;;;4954597;28;20572;-76
2022/06/10 07:15:54;;;;;;;5.40;1.67;;;20.80;99.90;;;;;;4958460;28;20978;-76
2022/06/10 07:18:21;;;;;;;4.80;1.70;;;20.90;99.90;;;;;;4955448;28;20604;-76
2022/06/10 07:20:47;;;;;;;3.07;1.17;;;20.90;99.90;;;;;;4954806;28;20572;-76
2022/06/10 07:23:13;;;;;;;4.37;1.67;;;21.00;99.90;;;;;;4938603;29;20583;-77
2022/06/10 07:25:39;;;;;;;3.20;1.13;;;21.10;99.90;;;;;;4939413;29;21135;-77
2022/06/10 07:28:05;;;;;;;4.30;1.57;;;21.20;99.90;;;;;;4955692;28;21043;-75
2022/06/10 07:30:33;;;;;;;2.93;1.67;;;21.40;99.90;;;;;;4938369;28;21024;-77
2022/06/10 07:32:59;;;;;;;3.83;1.30;;;21.40;99.90;;;;;;4956826;29;20568;-77
2022/06/10 07:35:26;;;;;;;4.60;1.67;;;21.50;99.90;;;;;;4955345;28;21094;-77
2022/06/10 07:37:52;;;;;;;7.80;1.93;;;21.60;99.90;;;;;;4955528;28;20603;-76
2022/06/10 07:43:06;;;;;;;2.97;1.20;;;21.80;99.90;;;;;;4955775;28;20572;-76
2022/06/10 07:45:33;;;;;;;7.40;1.87;;;21.80;99.90;;;;;;4955442;28;20905;-75
2022/06/10 07:47:58;;;;;;;4.03;1.97;;;21.70;99.90;;;;;;4937816;28;20204;-76
2022/06/10 07:50:25;;;;;;;6.03;1.70;;;21.70;99.90;;;;;;4955922;28;20568;-76
2022/06/10 07:52:51;;;;;;;3.80;1.57;;;21.80;99.90;;;;;;4962887;28;20590;-76
2022/06/10 07:55:18;;;;;;;3.63;1.40;;;22.10;99.90;;;;;;4970185;28;20580;-77
2022/06/10 07:57:44;;;;;;;3.20;1.00;;;22.30;99.90;;;;;;4938017;29;21029;-76
2022/06/10 08:00:11;;;;;;;6.00;1.70;;;22.60;99.90;;;;;;4937737;29;21000;-76
2022/06/10 08:02:41;;;;;;;4.83;1.30;;;23.00;99.90;;;;;;4954476;29;20596;-76
2022/06/10 08:05:11;;;;;;;3.30;1.20;;;23.40;99.90;;;;;;4954551;28;20576;-77
2022/06/10 08:07:40;;;;;;;8.43;1.07;;;23.80;99.90;;;;;;4954416;28;20608;-76
2022/06/10 08:10:08;;;;;;;4.40;1.23;;;24.00;99.90;;;;;;4953760;28;20595;-77
2022/06/10 08:12:34;;;;;;;7.03;1.77;;;24.20;99.90;;;;;;4954111;28;20635;-77
2022/06/10 08:15:00;;;;;;;2.10;0.93;;;24.50;99.90;;;;;;4954756;28;20588;-76
2022/06/10 08:17:26;;;;;;;5.50;1.53;;;24.80;99.90;;;;;;4954304;28;20596;-76
2022/06/10 08:19:52;;;;;;;4.70;1.13;;;25.00;99.90;;;;;;4953871;28;20904;-77
2022/06/10 08:22:34;;;;;;;3.73;1.40;;;25.30;99.90;;;;;;4953990;28;20180;-76
2022/06/10 08:25:02;;;;;;;4.27;1.20;;;25.60;99.90;;;;;;4954417;28;20592;-76
2022/06/10 08:27:28;;;;;;;3.30;1.00;;;25.80;99.90;;;;;;4953880;28;20646;-77
2022/06/10 08:29:55;;;;;;;2.33;0.93;;;26.00;99.90;;;;;;4941112;28;20595;-76
2022/06/10 08:32:22;;;;;;;2.97;0.97;;;26.30;99.90;;;;;;4952491;28;20611;-76
2022/06/10 08:34:48;;;;;;;3.00;0.90;;;26.50;99.90;;;;;;4953611;28;20999;-77
2022/06/10 08:37:15;;;;;;;4.57;1.47;;;26.80;99.90;;;;;;4953848;28;20699;-77
2022/06/10 08:39:40;;;;;;;4.40;1.30;;;27.10;99.90;;;;;;4953719;28;20184;-77
2022/06/10 08:42:15;;;;;;;3.80;1.10;;;27.60;99.90;;;;;;4953268;28;21127;-76
2022/06/10 08:44:54;;;;;;;2.00;0.90;;;28.00;99.90;;;;;;4953741;28;20219;-77
2022/06/10 08:47:44;;;;;;;5.70;1.47;;;28.50;99.90;;;;;;4953721;28;20607;-78
2022/06/10 08:50:26;;;;;;;3.23;0.90;;;29.00;99.90;;;;;;4936391;29;21218;-77
2022/06/10 08:53:02;;;;;;;4.60;1.00;;;29.80;99.90;;;;;;4953513;28;20568;-76
2022/06/10 08:55:37;;;;;;;3.00;0.90;;;30.50;99.90;;;;;;4953842;28;20572;-77
2022/06/10 08:58:14;;;;;;;3.37;1.00;;;31.40;99.90;;;;;;4953515;28;20680;-77
2022/06/10 09:00:41;;;;;;;3.37;0.97;;;32.20;99.90;;;;;;4952952;28;20660;-77
2022/06/10 09:03:12;;;;;;;2.70;0.60;;;33.00;99.90;;;;;;4953467;28;20579;-77
2022/06/10 09:06:03;;;;;;;2.10;0.80;;;33.70;98.30;;;;;;4953665;28;20571;-77
2022/06/10 09:08:39;;;;;;;3.30;0.80;;;34.20;96.30;;;;;;4939665;28;20681;-77
2022/06/10 09:11:20;;;;;;;2.20;0.90;;;34.60;93.40;;;;;;4935745;29;20660;-77
2022/06/10 09:14:04;;;;;;;2.50;0.77;;;34.70;92.10;;;;;;4951741;28;20574;-78
2022/06/10 09:16:56;;;;;;;6.13;0.83;;;34.90;90.40;;;;;;4936189;28;20564;-77
2022/06/10 09:19:30;;;;;;;2.17;0.70;;;35.00;89.70;;;;;;4953511;29;21038;-78
2022/06/10 09:22:08;;;;;;;3.17;0.80;;;35.30;88.20;;;;;;4954152;28;20567;-79
2022/06/10 09:24:53;;;;;;;1.97;0.73;;;35.50;83.00;;;;;;4956312;28;20934;-79
2022/06/10 09:27:27;;;;;;;2.63;1.00;;;35.80;84.10;;;;;;4919484;28;20627;-78
2022/06/10 09:29:55;;;;;;;1.90;0.70;;;36.00;80.20;;;;;;4956595;28;20620;-79
2022/06/10 09:32:59;;;;;;;4.67;1.00;;;36.10;76.30;;;;;;4939482;29;20571;-79
2022/06/10 09:35:25;;;;;;;3.10;0.80;;;35.80;71.10;;;;;;4957248;28;20598;-79
2022/06/10 09:38:07;;;;;;;3.43;0.90;;;35.20;70.40;;;;;;4957070;28;20636;-79
2022/06/10 09:40:37;;;;;;;3.87;2.10;;;34.40;67.80;;;;;;4955285;28;20183;-79
2022/06/10 09:43:26;;;;;;;5.03;2.27;;;33.60;67.90;;;;;;4957491;28;20560;-78
2022/06/10 09:46:12;;;;;;;6.30;2.27;;;32.80;67.50;;;;;;4958662;28;20579;-79
2022/06/10 09:49:01;;;;;;;4.93;1.83;;;32.00;67.70;;;;;;4956412;28;20748;-79
2022/06/10 09:52:05;;;;;;;8.10;1.70;;;31.10;67.60;;;;;;4939233;29;20196;-79
2022/06/10 09:54:55;;;;;;;2.90;1.00;;;30.60;70.20;;;;;;4964424;28;20579;-79
2022/06/10 09:57:55;;;;;;;4.20;1.10;;;30.30;70.10;;;;;;4936365;29;20612;-78
2022/06/10 10:00:35;;;;;;;2.10;0.90;;;30.00;71.60;;;;;;4937040;29;20663;-78
2022/06/10 10:03:35;;;;;;;3.27;0.90;;;29.80;73.20;;;;;;4937797;29;20615;-78
2022/06/10 10:06:13;;;;;;;2.57;0.90;;;29.70;73.70;;;;;;4936549;29;20592;-79
2022/06/10 10:09:02;;;;;;;2.20;0.77;;;29.70;74.30;;;;;;4937630;29;20683;-79
2022/06/10 10:11:57;;;;;;;4.03;1.00;;;29.70;75.40;;;;;;4935780;29;20612;-80
2022/06/10 10:14:37;;;;;;;4.47;0.80;;;29.70;75.40;;;;;;4907679;29;20589;-81
2022/06/10 10:17:23;;;;;;;4.23;0.97;;;29.80;75.90;;;;;;4936555;29;21216;-80
2022/06/10 10:20:17;;;;;;;2.27;0.87;;;29.80;74.90;;;;;;4937358;29;20695;-80
2022/06/10 10:23:02;;;;;;;2.90;1.00;;;29.80;75.70;;;;;;4941379;29;20628;-80
2022/06/10 10:25:29;;;;;;;4.20;0.97;;;29.80;75.70;;;;;;4936135;29;20604;-80
2022/06/10 10:27:55;;;;;;;1.90;0.80;;;29.80;76.40;;;;;;4935850;29;20632;-80
2022/06/10 10:30:38;;;;;;;2.47;0.70;;;29.70;75.70;;;;;;4919739;29;20576;-80
2022/06/10 10:33:07;;;;;;;3.93;1.07;;;29.60;74.50;;;;;;4935659;29;20581;-80
2022/06/10 10:35:52;;;;;;;2.20;0.70;;;29.40;74.70;;;;;;4937185;29;20581;-78
2022/06/10 10:38:33;;;;;;;2.20;0.70;;;29.30;74.70;;;;;;4937070;29;20612;-80
2022/06/10 10:41:00;;;;;;;2.70;1.00;;;29.20;74.70;;;;;;4935441;29;20785;-79
2022/06/10 10:43:31;;;;;;;4.30;1.30;;;29.00;72.90;;;;;;4935747;29;20582;-80
2022/06/10 10:45:59;;;;;;;2.37;0.80;;;28.90;74.50;;;;;;4920108;29;20936;-79
2022/06/10 10:48:33;;;;;;;2.97;0.90;;;28.80;74.80;;;;;;4935270;29;20754;-79
2022/06/10 10:51:25;;;;;;;2.40;0.67;;;28.60;73.90;;;;;;4936157;29;20618;-79
2022/06/10 10:53:57;;;;;;;2.80;0.70;;;28.50;75.30;;;;;;4915065;29;20721;-79
2022/06/10 10:56:33;;;;;;;1.83;0.77;;;28.30;74.50;;;;;;4936471;29;21113;-79
2022/06/10 10:58:59;;;;;;;2.80;0.60;;;28.20;75.90;;;;;;4941084;29;21095;-79
2022/06/10 11:01:47;;;;;;;1.87;0.50;;;28.20;76.60;;;;;;4935760;29;20565;-79
2022/06/10 11:04:24;;;;;;;2.50;0.60;;;28.20;77.20;;;;;;4936542;29;20915;-79
2022/06/10 11:07:11;;;;;;;1.60;0.70;;;28.30;77.30;;;;;;4936624;29;20600;-79
2022/06/10 11:09:52;;;;;;;2.87;0.80;;;28.30;78.50;;;;;;4935277;29;20673;-79
2022/06/10 11:12:27;;;;;;;1.97;0.60;;;28.40;78.30;;;;;;4934815;29;20665;-79
2022/06/10 11:15:03;;;;;;;1.47;0.60;;;28.40;78.30;;;;;;4936121;29;20580;-79
2022/06/10 11:17:30;;;;;;;1.83;0.50;;;28.50;78.30;;;;;;4936622;29;20668;-79
2022/06/10 11:20:16;;;;;;;1.60;0.50;;;28.60;79.20;;;;;;4935843;29;20585;-79
2022/06/10 11:22:44;;;;;;;2.67;0.70;;;28.70;78.20;;;;;;4934286;29;20577;-79
2022/06/10 11:25:14;;;;;;;1.40;0.50;;;28.80;78.50;;;;;;4936213;29;21122;-79
2022/06/10 11:27:57;;;;;;;1.40;0.50;;;28.90;78.30;;;;;;4936187;29;21216;-79
2022/06/10 11:30:32;;;;;;;1.80;0.50;;;29.00;77.90;;;;;;4935968;29;20571;-79
2022/06/10 11:33:03;;;;;;;1.50;0.50;;;29.00;78.30;;;;;;4936302;29;20577;-78
2022/06/10 11:35:36;;;;;;;1.60;0.53;;;29.10;77.80;;;;;;4941532;29;21099;-79
2022/06/10 11:38:05;;;;;;;2.20;0.60;;;29.20;77.90;;;;;;4935474;29;20611;-79
2022/06/10 11:40:46;;;;;;;1.63;0.80;;;29.20;77.60;;;;;;4934168;29;20628;-79
2022/06/10 11:43:33;;;;;;;1.67;0.50;;;29.30;77.80;;;;;;4935881;29;20684;-78
2022/06/10 11:46:34;;;;;;;1.67;0.53;;;29.40;76.80;;;;;;4934687;29;20573;-79
2022/06/10 11:49:19;;;;;;;1.90;0.50;;;29.40;77.10;;;;;;4935806;29;20954;-79
2022/06/10 11:51:51;;;;;;;1.50;0.50;;;29.50;76.20;;;;;;4934870;29;20569;-78
2022/06/10 11:54:34;;;;;;;1.57;0.43;;;29.60;76.40;;;;;;4934454;29;20613;-80
2022/06/10 12:00:21;;;;;;;3.10;0.60;;;29.80;75.60;;;;;;4935404;29;20635;-79
2022/06/10 12:03:23;;;;;;;1.40;0.50;;;29.90;75.40;;;;;;4935188;29;20561;-79
2022/06/10 12:05:51;;;;;;;2.20;0.57;;;30.10;75.90;;;;;;4942501;28;20621;-78
2022/06/10 12:08:55;;;;;;;1.90;0.50;;;30.40;75.80;;;;;;4955222;28;20632;-79
2022/06/10 12:11:39;;;;;;;1.97;0.50;;;30.50;75.40;;;;;;4920004;29;21168;-80
2022/06/10 12:14:14;;;;;;;1.23;0.40;;;30.70;74.30;;;;;;4939803;28;20592;-79
2022/06/10 12:16:41;;;;;;;1.63;0.50;;;30.90;74.60;;;;;;4954634;28;20635;-80
2022/06/10 12:19:15;;;;;;;1.63;0.63;;;31.10;74.80;;;;;;4937229;29;20592;-79
2022/06/10 12:21:42;;;;;;;2.30;0.70;;;31.10;73.10;;;;;;4953391;28;20568;-79
2022/06/10 12:24:14;;;;;;;1.70;0.87;;;31.20;73.90;;;;;;4954604;28;20596;-79
2022/06/10 12:26:50;;;;;;;3.03;0.60;;;31.40;72.40;;;;;;4953577;28;20600;-80
2022/06/10 12:29:19;;;;;;;3.20;0.83;;;31.40;72.00;;;;;;4921246;29;21263;-79
2022/06/10 12:31:51;;;;;;;3.10;0.77;;;31.40;71.00;;;;;;4936321;28;20561;-79
2022/06/10 12:34:36;;;;;;;1.63;0.60;;;31.40;69.60;;;;;;4953091;28;20585;-79
2022/06/10 12:37:10;;;;;;;2.53;0.70;;;31.40;70.30;;;;;;4954553;28;20616;-79
2022/06/10 12:39:52;;;;;;;1.80;0.60;;;31.50;69.50;;;;;;4936940;29;20584;-78
2022/06/10 12:42:34;;;;;;;3.57;0.70;;;31.60;69.60;;;;;;4953460;28;20584;-79
2022/06/10 12:45:03;;;;;;;1.40;0.40;;;31.70;69.50;;;;;;4936982;29;20592;-79
2022/06/10 12:47:39;;;;;;;1.63;0.50;;;31.70;70.60;;;;;;4954326;28;20600;-79
2022/06/10 12:50:22;;;;;;;2.50;0.53;;;31.80;68.20;;;;;;4958158;28;20583;-79
2022/06/10 12:53:05;;;;;;;2.70;0.50;;;31.70;68.10;;;;;;4953541;28;21151;-78
2022/06/10 12:55:44;;;;;;;1.60;0.60;;;31.50;67.80;;;;;;4936556;28;20568;-79
2022/06/10 12:58:38;;;;;;;1.80;0.60;;;31.50;67.40;;;;;;4952628;29;20652;-79
2022/06/10 13:01:21;;;;;;;1.97;1.07;;;31.40;67.60;;;;;;4953114;28;20569;-79
2022/06/10 13:04:00;;;;;;;1.60;0.60;;;31.40;67.40;;;;;;4953607;28;20607;-79
2022/06/10 13:06:35;;;;;;;2.60;0.50;;;31.40;67.70;;;;;;4953617;28;20576;-78
2022/06/10 13:09:12;;;;;;;2.60;0.87;;;31.40;67.30;;;;;;4936568;28;21285;-79
2022/06/10 13:11:37;;;;;;;2.03;0.57;;;31.40;67.10;;;;;;4952888;28;21120;-79
2022/06/10 13:14:09;;;;;;;1.47;0.50;;;31.40;67.40;;;;;;4957521;28;20597;-79
2022/06/10 13:16:40;;;;;;;1.40;0.50;;;31.40;67.30;;;;;;4963581;28;20211;-79
2022/06/10 13:19:31;;;;;;;3.00;0.80;;;31.40;66.90;;;;;;4972427;28;20574;-78
2022/06/10 13:21:59;;;;;;;2.33;0.60;;;31.40;66.60;;;;;;4954619;28;21167;-79
2022/06/10 13:24:25;;;;;;;2.10;0.70;;;31.50;66.30;;;;;;4971496;28;21201;-82
2022/06/10 13:26:53;;;;;;;2.60;0.60;;;31.50;66.40;;;;;;4980043;28;20626;-81
2022/06/10 13:29:21;;;;;;;3.50;0.70;;;31.50;66.10;;;;;;4963993;28;20627;-82
2022/06/10 13:31:47;;;;;;;1.63;0.70;;;31.40;65.90;;;;;;4973871;28;20582;-81
2022/06/10 13:34:24;;;;;;;2.57;0.70;;;31.40;65.90;;;;;;4994149;28;20575;-82